Time;durP1;ratioP1;P1;durP2;ratioP2;P2;SDS_P1;SDS_P2;PMS_P1;PMS_P2;Temp;Humidity;BMP_temperature;BMP_pressure;BME280_temperature;BME280_humidity;BME280_pressure;Samples;Min_cycle;Max_cycle;Signal;HPM_P1;HPM_P2
2022/08/06 00:00:51;;;;;;;1.67;1.50;;;;;;;21.60;76.49;100832.09;5097221;28;20231;-76
2022/08/06 00:03:17;;;;;;;2.77;1.57;;;;;;;21.58;76.39;100834.72;5097495;27;20302;-76
2022/08/06 00:05:42;;;;;;;1.63;1.43;;;;;;;21.59;76.38;100833.81;5100838;27;20639;-75
2022/08/06 00:08:07;;;;;;;2.10;1.63;;;;;;;21.56;76.49;100830.47;5099102;27;20271;-76
2022/08/06 00:10:33;;;;;;;1.60;1.40;;;;;;;21.59;76.31;100839.06;5100605;27;20208;-76
2022/08/06 00:12:59;;;;;;;1.33;1.23;;;;;;;21.59;75.90;100846.13;5097985;27;20715;-76
2022/08/06 00:15:24;;;;;;;1.97;1.40;;;;;;;21.56;76.22;100831.31;5097409;27;20187;-76
2022/08/06 00:17:49;;;;;;;2.33;1.47;;;;;;;21.53;76.43;100833.25;5105520;27;20188;-75
2022/08/06 00:20:15;;;;;;;2.23;1.40;;;;;;;21.50;76.48;100825.47;5099887;28;20184;-76
2022/08/06 00:22:42;;;;;;;1.60;1.40;;;;;;;21.47;76.89;100826.47;5098686;27;20192;-75
2022/08/06 00:25:09;;;;;;;2.43;1.57;;;;;;;21.42;77.07;100826.69;5100388;27;20208;-75
2022/08/06 00:27:35;;;;;;;2.23;1.50;;;;;;;21.41;76.60;100832.03;5092001;27;20211;-76
2022/08/06 00:30:00;;;;;;;2.13;1.27;;;;;;;21.38;76.80;100840.91;5097148;27;20658;-76
2022/08/06 00:32:26;;;;;;;1.73;1.50;;;;;;;21.36;76.83;100841.94;5098791;27;20686;-75
2022/08/06 00:34:54;;;;;;;4.00;1.80;;;;;;;21.30;77.22;100843.91;5095735;27;20582;-74
2022/08/06 00:37:20;;;;;;;2.10;1.93;;;;;;;21.29;77.66;100843.97;5093083;28;20325;-75
2022/08/06 00:39:45;;;;;;;2.20;1.40;;;;;;;21.26;77.15;100847.59;5096936;27;20271;-75
2022/08/06 00:42:11;;;;;;;2.13;1.40;;;;;;;21.23;77.21;100849.50;5099443;27;20216;-78
2022/08/06 00:44:36;;;;;;;2.50;1.50;;;;;;;21.22;77.41;100847.81;5094702;27;20183;-77
2022/08/06 00:47:02;;;;;;;2.80;1.47;;;;;;;21.17;77.75;100851.50;5110158;27;20881;-79
2022/08/06 00:49:27;;;;;;;2.60;1.67;;;;;;;21.17;77.67;100856.78;5092851;28;20191;-76
2022/08/06 00:51:52;;;;;;;2.47;1.50;;;;;;;21.12;78.47;100861.38;5095255;27;20254;-77
2022/08/06 00:54:21;;;;;;;1.60;1.47;;;;;;;21.10;78.42;100854.47;5107668;27;20191;-76
2022/08/06 00:56:46;;;;;;;1.73;1.63;;;;;;;21.08;78.66;100859.78;5098695;27;20899;-76
2022/08/06 00:59:12;;;;;;;2.97;1.60;;;;;;;21.09;78.58;100853.63;5102242;27;20646;-75
2022/08/06 01:01:37;;;;;;;1.40;1.30;;;;;;;21.06;78.66;100866.06;5101274;27;20286;-76
2022/08/06 01:04:03;;;;;;;3.30;1.60;;;;;;;21.04;78.19;100855.59;5096161;27;20185;-78
2022/08/06 01:06:28;;;;;;;2.60;1.47;;;;;;;21.01;78.91;100853.09;5099754;28;20188;-79
2022/08/06 01:08:54;;;;;;;1.93;1.33;;;;;;;21.04;78.02;100855.59;5098670;27;20263;-76
2022/08/06 01:11:19;;;;;;;1.63;1.40;;;;;;;21.00;78.33;100861.91;5103892;27;20222;-76
2022/08/06 01:13:44;;;;;;;2.07;1.40;;;;;;;20.98;78.03;100869.88;5102479;27;20205;-75
2022/08/06 01:16:33;;;;;;;2.27;1.53;;;;;;;20.95;77.30;100864.72;5094390;27;20193;-75
2022/08/06 01:19:30;;;;;;;1.53;1.33;;;;;;;20.92;77.55;100864.88;5093112;28;20224;-76
2022/08/06 01:22:37;;;;;;;3.73;1.93;;;;;;;20.88;77.23;100863.31;5100982;27;20402;-77
2022/08/06 01:25:40;;;;;;;1.90;1.70;;;;;;;20.90;77.41;100863.22;5089934;27;20675;-75
2022/08/06 01:28:16;;;;;;;1.40;1.30;;;;;;;20.86;77.63;100870.41;5091020;28;20222;-75
2022/08/06 01:30:49;;;;;;;2.47;1.60;;;;;;;20.84;77.71;100870.47;5104102;27;20626;-76
2022/08/06 01:33:30;;;;;;;3.17;1.57;;;;;;;20.83;77.42;100871.41;5101329;27;20207;-76
2022/08/06 01:35:59;;;;;;;3.27;1.50;;;;;;;20.78;77.20;100867.25;5100094;27;20842;-76
2022/08/06 01:38:35;;;;;;;2.63;1.77;;;;;;;20.74;77.39;100871.72;5094854;28;20240;-75
2022/08/06 01:41:04;;;;;;;3.10;1.60;;;;;;;20.74;77.29;100871.72;5096607;27;20201;-75
2022/08/06 01:43:32;;;;;;;2.23;1.70;;;;;;;20.70;77.72;100868.38;5101787;27;20185;-77
2022/08/06 01:46:00;;;;;;;1.93;1.40;;;;;;;20.70;77.18;100878.91;5096150;28;20188;-78
2022/08/06 01:48:27;;;;;;;2.67;1.63;;;;;;;20.67;77.33;100872.94;5091888;28;20236;-77
2022/08/06 01:50:57;;;;;;;2.00;1.33;;;;;;;20.62;76.72;100872.25;5095542;27;20210;-76
2022/08/06 01:53:43;;;;;;;2.33;1.47;;;;;;;20.59;77.09;100873.25;5092947;28;20210;-76
2022/08/06 01:56:10;;;;;;;3.47;1.40;;;;;;;20.55;76.79;100887.44;5098639;28;20651;-76
2022/08/06 01:58:42;;;;;;;2.23;1.30;;;;;;;20.48;77.60;100876.31;5088357;28;20188;-76
2022/08/06 02:01:11;;;;;;;2.67;1.40;;;;;;;20.44;77.26;100881.78;5102827;28;20212;-76
2022/08/06 02:03:47;;;;;;;2.43;1.40;;;;;;;20.38;77.88;100878.47;5093275;28;20188;-76
2022/08/06 02:06:18;;;;;;;1.80;1.50;;;;;;;20.37;77.14;100889.06;5094235;28;20622;-76
2022/08/06 02:08:46;;;;;;;3.63;1.50;;;;;;;20.30;77.81;100893.69;5099508;28;20180;-76
2022/08/06 02:11:11;;;;;;;2.20;1.67;;;;;;;20.25;78.05;100893.03;5098881;28;20253;-75
2022/08/06 02:13:39;;;;;;;3.00;1.43;;;;;;;20.23;77.79;100889.59;5096339;28;20707;-76
2022/08/06 02:16:07;;;;;;;2.10;1.40;;;;;;;20.15;77.89;100889.06;5108258;28;20560;-75
2022/08/06 02:18:37;;;;;;;2.50;1.30;;;;;;;20.09;78.02;100888.38;5101093;28;20210;-76
2022/08/06 02:21:10;;;;;;;2.67;1.50;;;;;;;20.08;78.54;100891.91;5096525;28;20214;-76
2022/08/06 02:23:36;;;;;;;2.67;1.50;;;;;;;20.05;79.12;100885.94;5095498;28;20259;-75
2022/08/06 02:26:03;;;;;;;2.57;1.60;;;;;;;20.01;79.00;100894.84;5090375;28;20182;-76
2022/08/06 02:28:31;;;;;;;2.20;1.60;;;;;;;19.94;79.60;100894.22;5094837;28;20737;-76
2022/08/06 02:30:57;;;;;;;2.27;1.40;;;;;;;19.88;80.13;100887.44;5100131;28;20216;-76
2022/08/06 02:33:23;;;;;;;4.03;1.37;;;;;;;19.86;80.34;100891.00;5107956;28;20230;-75
2022/08/06 02:35:53;;;;;;;1.63;1.50;;;;;;;19.82;80.36;100895.50;5100942;28;20191;-76
2022/08/06 02:38:59;;;;;;;2.13;1.63;;;;;;;19.78;80.54;100883.44;5094482;28;20195;-76
2022/08/06 02:41:34;;;;;;;2.37;1.37;;;;;;;19.75;80.40;100889.63;5091408;28;20215;-76
2022/08/06 02:44:13;;;;;;;2.00;1.30;;;;;;;19.69;80.76;100896.88;5104723;28;20178;-78
2022/08/06 02:46:52;;;;;;;1.80;1.50;;;;;;;19.61;81.07;100895.41;5109426;28;20178;-78
2022/08/06 02:49:24;;;;;;;2.77;1.80;;;;;;;19.60;81.58;100891.06;5103930;28;20275;-76
2022/08/06 02:52:03;;;;;;;3.43;1.43;;;;;;;19.55;81.58;100900.88;5099742;28;20229;-76
2022/08/06 02:54:38;;;;;;;2.60;1.50;;;;;;;19.50;81.90;100894.97;5097538;28;20681;-76
2022/08/06 02:57:06;;;;;;;2.40;1.40;;;;;;;19.45;82.46;100900.34;5089977;28;20246;-76
2022/08/06 02:59:38;;;;;;;4.03;1.70;;;;;;;19.39;82.80;100904.97;5088397;28;20231;-76
2022/08/06 03:02:08;;;;;;;3.00;2.00;;;;;;;19.33;83.20;100899.06;5095080;28;20206;-76
2022/08/06 03:04:39;;;;;;;1.60;1.50;;;;;;;19.32;83.46;100904.34;5095639;28;20484;-76
2022/08/06 03:07:08;;;;;;;2.27;1.87;;;;;;;19.30;83.48;100901.78;5093501;28;20190;-77
2022/08/06 03:09:35;;;;;;;2.47;1.80;;;;;;;19.30;83.75;100901.78;5099761;27;20182;-76
2022/08/06 03:12:01;;;;;;;3.40;2.20;;;;;;;19.26;84.33;100901.94;5100130;27;20653;-77
2022/08/06 03:14:28;;;;;;;2.03;1.50;;;;;;;19.25;84.30;100905.47;5097441;27;20210;-76
2022/08/06 03:16:55;;;;;;;3.73;1.80;;;;;;;19.23;84.70;100907.31;5103130;28;20192;-77
2022/08/06 03:19:22;;;;;;;3.30;1.70;;;;;;;19.19;84.84;100912.66;5107416;27;20694;-76
2022/08/06 03:21:49;;;;;;;2.10;1.70;;;;;;;19.15;85.32;100913.66;5096809;27;20222;-76
2022/08/06 03:24:15;;;;;;;2.73;1.80;;;;;;;19.18;85.18;100917.97;5096613;27;20260;-76
2022/08/06 03:26:45;;;;;;;2.43;1.80;;;;;;;19.19;85.17;100917.91;5101250;28;20188;-77
2022/08/06 03:29:11;;;;;;;2.90;1.70;;;;;;;19.17;85.45;100924.97;5100651;27;20191;-76
2022/08/06 03:31:37;;;;;;;2.00;1.80;;;;;;;19.18;85.97;100924.06;5104049;27;20213;-76
2022/08/06 03:34:05;;;;;;;2.77;1.60;;;;;;;19.18;86.03;100921.44;5097837;28;20669;-76
2022/08/06 03:36:31;;;;;;;3.03;1.90;;;;;;;19.20;86.06;100926.63;5100597;28;20294;-79
2022/08/06 03:39:02;;;;;;;2.80;2.00;;;;;;;19.16;86.52;100927.66;5100275;28;20184;-78
2022/08/06 03:41:30;;;;;;;1.90;1.67;;;;;;;19.13;86.72;100933.00;5106828;28;20212;-76
2022/08/06 03:43:55;;;;;;;2.23;1.80;;;;;;;19.14;86.93;100942.59;5093999;27;20892;-76
2022/08/06 03:46:43;;;;;;;3.97;1.80;;;;;;;19.12;87.19;100945.28;5105254;27;20179;-76
2022/08/06 03:49:16;;;;;;;2.87;1.63;;;;;;;19.12;87.36;100942.66;5101731;28;20187;-76
2022/08/06 03:51:43;;;;;;;2.47;1.67;;;;;;;19.08;87.64;100945.41;5101787;27;20232;-76
2022/08/06 03:54:10;;;;;;;4.50;1.90;;;;;;;19.07;88.09;100941.06;5106876;27;20204;-76
2022/08/06 03:56:40;;;;;;;2.83;2.17;;;;;;;19.02;88.68;100938.59;5098762;27;20195;-77
2022/08/06 03:59:08;;;;;;;3.77;1.90;;;;;;;19.03;88.78;100945.56;5099436;27;20193;-76
2022/08/06 04:01:36;;;;;;;3.67;2.27;;;;;;;19.00;89.29;100945.66;5109582;27;20209;-76
2022/08/06 04:04:02;;;;;;;2.60;2.20;;;;;;;18.97;89.16;100949.25;5102870;27;20187;-76
2022/08/06 04:06:29;;;;;;;2.23;2.03;;;;;;;18.94;89.55;100953.72;5102857;28;20209;-76
2022/08/06 04:08:56;;;;;;;3.13;2.37;;;;;;;18.92;89.71;100955.53;5106353;27;20180;-76
2022/08/06 04:11:23;;;;;;;2.83;2.00;;;;;;;18.85;90.39;100958.34;5099630;28;20625;-79
2022/08/06 04:13:49;;;;;;;2.43;2.23;;;;;;;18.82;91.14;100952.34;5098421;27;20203;-78
2022/08/06 04:16:16;;;;;;;3.07;2.10;;;;;;;18.75;90.40;100951.69;5104124;27;20181;-79
2022/08/06 04:18:44;;;;;;;3.83;2.10;;;;;;;18.67;90.92;100959.81;5096172;28;20234;-77
2022/08/06 04:21:14;;;;;;;3.70;2.47;;;;;;;18.58;90.92;100958.34;5103820;27;20210;-76
2022/08/06 04:23:39;;;;;;;2.53;2.33;;;;;;;18.57;91.02;100958.41;5105197;27;20183;-76
2022/08/06 04:26:07;;;;;;;4.43;2.17;;;;;;;18.51;91.50;100962.06;5098805;27;20184;-76
2022/08/06 04:28:39;;;;;;;4.07;2.47;;;;;;;18.53;91.14;100962.00;5098092;27;20262;-76
2022/08/06 04:31:07;;;;;;;3.63;2.13;;;;;;;18.48;90.96;100963.91;5100542;27;20217;-78
2022/08/06 04:33:34;;;;;;;3.80;2.23;;;;;;;18.49;90.92;100969.13;5094697;28;20195;-79
2022/08/06 04:36:05;;;;;;;2.83;2.50;;;;;;;18.54;90.95;100968.97;5109017;27;20191;-79
2022/08/06 04:38:31;;;;;;;4.37;2.53;;;;;;;18.59;90.22;100972.31;5101382;27;20185;-76
2022/08/06 04:40:58;;;;;;;3.23;2.40;;;;;;;18.70;90.41;100977.19;5093725;27;20198;-76
2022/08/06 04:43:23;;;;;;;4.77;2.20;;;;;;;18.74;90.42;100981.44;5106809;27;20183;-79
2022/08/06 04:45:50;;;;;;;2.33;2.13;;;;;;;18.68;90.45;100993.00;5099889;27;20715;-79
2022/08/06 04:48:16;;;;;;;2.77;1.83;;;;;;;18.66;90.34;100989.56;5104874;27;20184;-76
2022/08/06 04:50:41;;;;;;;2.20;1.87;;;;;;;18.64;90.46;100986.13;5091650;28;20230;-76
2022/08/06 04:53:15;;;;;;;2.33;1.97;;;;;;;18.68;90.73;100992.16;5097855;27;20217;-76
2022/08/06 04:55:42;;;;;;;3.03;2.07;;;;;;;18.66;90.63;100993.94;5096484;27;20272;-76
2022/08/06 04:58:09;;;;;;;5.23;2.87;;;;;;;18.63;90.74;100994.88;5095072;27;20245;-76
2022/08/06 05:00:37;;;;;;;3.10;2.23;;;;;;;18.62;91.11;100997.56;5090001;28;20235;-76
2022/08/06 05:03:03;;;;;;;5.13;2.53;;;;;;;18.70;90.42;101006.03;5097126;28;20258;-77
2022/08/06 05:05:46;;;;;;;3.37;1.93;;;;;;;18.68;89.99;101011.34;5095541;27;20567;-77
2022/08/06 05:08:12;;;;;;;2.43;2.10;;;;;;;18.73;89.96;101011.19;5102774;27;20211;-76
2022/08/06 05:10:51;;;;;;;3.10;2.47;;;;;;;18.71;88.91;101010.38;5089557;28;20210;-76
2022/08/06 05:13:20;;;;;;;3.07;1.93;;;;;;;18.70;89.24;101008.66;5098748;27;20181;-77
2022/08/06 05:15:51;;;;;;;3.67;2.57;;;;;;;18.74;89.27;101013.78;5096757;28;20253;-78
2022/08/06 05:18:24;;;;;;;2.77;2.00;;;;;;;18.72;89.31;101010.34;5098684;27;20188;-75
2022/08/06 05:20:53;;;;;;;3.43;2.40;;;;;;;18.71;89.19;101016.50;5103229;27;20217;-76
2022/08/06 05:23:22;;;;;;;2.47;2.17;;;;;;;18.65;89.31;101021.06;5094877;27;20819;-79
2022/08/06 05:25:49;;;;;;;2.37;2.00;;;;;;;18.62;89.97;101023.78;5098750;27;20188;-78
2022/08/06 05:28:14;;;;;;;4.53;2.67;;;;;;;18.64;89.21;101024.59;5091505;27;20201;-79
2022/08/06 05:30:50;;;;;;;2.67;2.33;;;;;;;18.72;89.71;101023.47;5106056;28;20671;-79
2022/08/06 05:33:32;;;;;;;3.40;2.50;;;;;;;18.86;89.11;101024.78;5115875;27;20177;-79
2022/08/06 05:35:59;;;;;;;4.10;2.13;;;;;;;18.96;87.54;101028.00;5103239;27;20193;-76
2022/08/06 05:38:26;;;;;;;4.97;2.50;;;;;;;19.12;87.23;101028.34;5103020;27;20180;-76
2022/08/06 05:40:55;;;;;;;3.47;2.03;;;;;;;19.56;85.67;101025.97;5122253;27;20203;-76
2022/08/06 05:43:21;;;;;;;3.03;2.37;;;;;;;19.95;84.08;101025.53;5101467;27;20181;-78
2022/08/06 05:45:49;;;;;;;3.07;1.83;;;;;;;20.42;82.76;101029.03;5106660;27;20176;-78
2022/08/06 05:48:19;;;;;;;2.10;1.83;;;;;;;21.09;80.44;101034.34;5107800;27;20688;-75
2022/08/06 05:50:49;;;;;;;3.23;2.23;;;;;;;21.66;78.34;101036.38;5107779;27;20259;-76
2022/08/06 05:53:25;;;;;;;2.60;2.17;;;;;;;22.00;76.10;101043.66;5107294;28;20190;-77
2022/08/06 05:55:54;;;;;;;2.77;2.00;;;;;;;22.22;75.26;101035.63;5100049;28;20206;-78
2022/08/06 05:58:43;;;;;;;2.20;2.00;;;;;;;22.17;75.27;101048.13;5094833;28;20204;-79
2022/08/06 06:01:09;;;;;;;2.67;2.20;;;;;;;22.85;74.46;101036.22;5108446;28;20204;-76
2022/08/06 06:03:37;;;;;;;2.77;1.70;;;;;;;23.86;71.77;101044.41;5096429;28;20189;-76
2022/08/06 06:06:03;;;;;;;4.50;1.60;;;;;;;24.87;69.11;101045.13;5105673;28;20191;-76
2022/08/06 06:08:29;;;;;;;5.43;2.10;;;;;;;24.81;68.44;101050.75;5094656;28;20263;-76
2022/08/06 06:10:55;;;;;;;4.00;1.63;;;;;;;25.00;67.64;101058.50;5087895;28;20288;-76
2022/08/06 06:13:23;;;;;;;3.87;1.83;;;;;;;24.50;68.16;101052.44;5109748;27;20187;-76
2022/08/06 06:16:03;;;;;;;2.73;1.87;;;;;;;24.85;67.63;101056.72;5092589;28;20189;-76
2022/08/06 06:18:42;;;;;;;3.13;1.60;;;;;;;25.23;66.66;101056.31;5095541;28;20287;-76
2022/08/06 06:21:30;;;;;;;3.53;2.07;;;;;;;25.27;65.86;101063.13;5100030;28;20204;-76
2022/08/06 06:24:28;;;;;;;3.50;1.87;;;;;;;25.40;66.28;101056.19;5087530;28;20578;-76
2022/08/06 06:27:00;;;;;;;2.40;1.67;;;;;;;25.13;66.69;101063.06;5097651;28;20644;-78
2022/08/06 06:29:45;;;;;;;3.00;1.80;;;;;;;25.04;67.30;101067.09;5097510;28;20211;-79
2022/08/06 06:32:35;;;;;;;3.27;1.97;;;;;;;25.29;67.21;101061.25;5099029;28;20244;-78
2022/08/06 06:35:18;;;;;;;8.20;1.97;;;;;;;25.73;66.03;101054.25;5088683;28;20205;-76
2022/08/06 06:37:55;;;;;;;2.60;1.70;;;;;;;25.55;66.10;101064.19;5092460;28;20188;-76
2022/08/06 06:41:16;;;;;;;4.70;2.27;;;;;;;25.25;66.21;101063.22;5091434;28;20189;-76
2022/08/06 06:44:09;;;;;;;3.20;1.73;;;;;;;24.84;67.36;101058.53;5053222;28;20185;-76
2022/08/06 06:46:43;;;;;;;1.60;1.50;;;;;;;25.41;66.67;101060.53;5097153;28;20973;-77
2022/08/06 06:49:24;;;;;;;2.67;2.07;;;;;;;25.04;66.67;101060.03;5097763;27;20541;-76
2022/08/06 06:51:55;;;;;;;2.60;1.60;;;;;;;25.92;65.46;101063.75;5107521;28;20204;-76
2022/08/06 06:54:31;;;;;;;3.07;2.00;;;;;;;25.65;65.75;101059.16;5105746;27;20222;-77
2022/08/06 06:56:57;;;;;;;2.00;1.53;;;;;;;25.90;65.27;101071.78;5111352;27;20585;-77
2022/08/06 06:59:51;;;;;;;4.03;1.80;;;;;;;25.33;66.25;101059.28;5105674;28;20192;-76
2022/08/06 07:02:28;;;;;;;2.20;1.73;;;;;;;25.52;65.86;101061.72;5113974;27;20225;-75
2022/08/06 07:04:55;;;;;;;2.33;1.70;;;;;;;25.50;65.92;101066.25;5106903;27;20376;-76
2022/08/06 07:07:21;;;;;;;5.40;1.83;;;;;;;26.14;64.36;101071.25;5106352;27;20187;-76
2022/08/06 07:09:48;;;;;;;4.97;2.10;;;;;;;26.07;65.36;101075.19;5099001;28;20185;-76
2022/08/06 07:12:15;;;;;;;2.40;1.80;;;;;;;25.60;65.63;101061.25;5099316;28;20219;-75
2022/08/06 07:14:42;;;;;;;4.40;2.40;;;;;;;25.07;66.38;101066.94;5104264;27;20204;-76
2022/08/06 07:17:10;;;;;;;3.10;2.07;;;;;;;24.96;67.49;101059.59;5098255;27;20253;-76
2022/08/06 07:19:37;;;;;;;2.60;2.17;;;;;;;24.45;68.31;101068.59;5097733;28;20184;-76
2022/08/06 07:22:03;;;;;;;3.87;2.10;;;;;;;24.77;67.11;101067.75;5098862;27;20219;-75
2022/08/06 07:24:33;;;;;;;4.27;1.97;;;;;;;25.17;67.57;101068.13;5094880;28;20197;-77
2022/08/06 07:27:00;;;;;;;4.17;2.00;;;;;;;25.07;67.32;101064.28;5100525;27;20184;-78
2022/08/06 07:29:27;;;;;;;3.30;2.27;;;;;;;25.09;67.49;101079.16;5113220;27;20186;-78
2022/08/06 07:31:55;;;;;;;3.67;2.00;;;;;;;24.72;67.84;101070.66;5109605;27;20225;-78
2022/08/06 07:34:21;;;;;;;4.63;1.90;;;;;;;24.70;68.07;101069.06;5102396;27;20256;-76
2022/08/06 07:36:51;;;;;;;3.00;1.80;;;;;;;24.94;67.50;101067.66;5097472;28;20597;-76
2022/08/06 07:39:29;;;;;;;2.57;1.80;;;;;;;24.93;67.23;101065.94;5105686;27;20195;-78
2022/08/06 07:41:57;;;;;;;2.57;1.97;;;;;;;24.80;67.86;101070.22;5105931;27;20726;-78
2022/08/06 07:44:26;;;;;;;4.43;1.80;;;;;;;24.43;68.06;101064.34;5102123;27;20180;-76
2022/08/06 07:46:55;;;;;;;2.50;1.80;;;;;;;24.71;67.51;101057.53;5104931;28;20191;-79
2022/08/06 07:49:24;;;;;;;2.77;1.90;;;;;;;24.58;67.51;101062.63;5099033;27;20557;-79
2022/08/06 07:51:50;;;;;;;3.07;1.37;;;;;;;24.41;67.50;101088.19;5097321;28;20234;-78
2022/08/06 07:54:17;;;;;;;2.13;1.67;;;;;;;24.46;67.19;101065.00;5099562;28;20192;-76
2022/08/06 07:56:43;;;;;;;4.13;1.73;;;;;;;24.64;66.44;101072.88;5095520;27;20192;-77
2022/08/06 07:59:09;;;;;;;2.60;1.70;;;;;;;24.67;66.49;101067.38;5095830;27;20553;-76
2022/08/06 08:01:36;;;;;;;2.83;1.90;;;;;;;24.51;66.63;101067.41;5096059;28;20216;-76
2022/08/06 08:06:55;;;;;;;2.77;1.70;;;;;;;24.08;68.60;101061.81;5111415;27;20710;-76
2022/08/06 08:09:23;;;;;;;4.57;1.97;;;;;;;24.03;67.59;101072.63;5104898;27;20189;-76
2022/08/06 08:11:50;;;;;;;3.50;1.50;;;;;;;23.71;67.67;101060.13;5104036;27;20208;-77
2022/08/06 08:14:18;;;;;;;9.67;1.77;;;;;;;23.85;66.57;101062.06;5103931;27;20212;-75
2022/08/06 08:16:45;;;;;;;3.40;1.50;;;;;;;23.66;67.65;101064.81;5104521;27;20215;-75
2022/08/06 08:19:22;;;;;;;3.67;1.93;;;;;;;23.46;66.43;101064.97;5103973;27;20280;-76
2022/08/06 08:21:51;;;;;;;2.30;1.30;;;;;;;23.24;67.86;101058.13;5097517;27;20205;-76
2022/08/06 08:24:16;;;;;;;4.00;1.60;;;;;;;23.09;67.88;101067.63;5097317;28;20245;-76
2022/08/06 08:26:42;;;;;;;3.10;1.83;;;;;;;23.22;68.28;101062.63;5098756;28;20199;-78
2022/08/06 08:29:09;;;;;;;3.40;1.80;;;;;;;23.15;66.72;101077.88;5090564;28;20185;-76
2022/08/06 08:31:35;;;;;;;2.23;1.60;;;;;;;23.13;64.38;101075.31;5088623;28;20311;-77
2022/08/06 08:34:00;;;;;;;5.33;1.33;;;;;;;23.11;64.79;101063.13;5110607;27;20294;-76
2022/08/06 08:36:26;;;;;;;5.73;1.37;;;;;;;23.00;65.28;101058.38;5095687;27;20197;-75
2022/08/06 08:38:56;;;;;;;4.70;1.40;;;;;;;22.95;66.18;101063.91;5093033;27;20185;-75
2022/08/06 08:41:26;;;;;;;4.43;1.87;;;;;;;23.08;65.75;101068.56;5093134;27;20230;-78
2022/08/06 08:44:02;;;;;;;4.10;1.80;;;;;;;22.99;66.08;101075.16;5108553;27;20229;-79
2022/08/06 08:46:31;;;;;;;3.30;1.43;;;;;;;22.80;65.25;101057.56;5105369;27;20191;-78
2022/08/06 08:49:03;;;;;;;3.93;1.60;;;;;;;22.86;64.46;101056.41;5102049;27;20295;-76
2022/08/06 08:51:31;;;;;;;1.87;1.20;;;;;;;22.76;64.86;101068.34;5095483;28;20253;-76
2022/08/06 08:54:00;;;;;;;3.67;1.53;;;;;;;22.53;64.29;101063.22;5100098;28;20212;-76
2022/08/06 08:56:26;;;;;;;1.93;1.60;;;;;;;22.44;64.71;101060.16;5105798;27;20798;-76
2022/08/06 08:58:51;;;;;;;2.80;1.50;;;;;;;22.55;64.97;101072.84;5097643;28;20184;-76
2022/08/06 09:01:18;;;;;;;3.47;1.70;;;;;;;22.44;65.05;101055.75;5098367;27;20219;-76
2022/08/06 09:03:44;;;;;;;3.07;1.63;;;;;;;22.55;62.99;101068.41;5099419;28;20209;-77
2022/08/06 09:06:10;;;;;;;3.33;1.20;;;;;;;22.59;62.33;101061.25;5099258;27;20189;-76
2022/08/06 09:08:36;;;;;;;3.27;1.30;;;;;;;22.77;64.15;101059.50;5100212;28;20197;-75
2022/08/06 09:11:03;;;;;;;1.97;1.40;;;;;;;22.80;64.64;101056.72;5100744;28;20212;-76
2022/08/06 09:13:29;;;;;;;3.93;1.30;;;;;;;22.92;64.84;101057.88;5098994;27;20189;-77
2022/08/06 09:15:55;;;;;;;2.93;1.40;;;;;;;22.96;64.43;101064.72;5103595;27;20693;-76
2022/08/06 09:18:25;;;;;;;1.90;1.40;;;;;;;23.03;64.04;101071.44;5090712;28;20263;-76
2022/08/06 09:20:51;;;;;;;1.73;1.30;;;;;;;23.20;64.18;101060.06;5105507;27;20618;-78
2022/08/06 09:23:17;;;;;;;2.57;1.40;;;;;;;23.23;62.98;101066.97;5112121;27;20193;-75
2022/08/06 09:25:44;;;;;;;2.50;1.47;;;;;;;23.16;63.20;101071.66;5107821;27;20189;-76
2022/08/06 09:28:11;;;;;;;4.67;1.80;;;;;;;23.29;62.96;101062.22;5098478;27;20181;-76
2022/08/06 09:30:38;;;;;;;1.80;1.20;;;;;;;23.34;62.44;101069.94;5091608;27;20208;-78
2022/08/06 09:33:10;;;;;;;2.53;1.77;;;;;;;23.35;62.26;101068.16;5091728;27;20208;-79
2022/08/06 09:35:36;;;;;;;1.73;1.30;;;;;;;23.23;62.11;101057.28;5095636;28;20212;-78
2022/08/06 09:38:05;;;;;;;2.43;1.10;;;;;;;23.46;61.80;101057.88;5089867;28;20567;-76
2022/08/06 09:40:30;;;;;;;3.57;1.43;;;;;;;23.42;61.18;101056.34;5097459;27;20352;-76
2022/08/06 09:42:56;;;;;;;4.43;2.10;;;;;;;23.49;61.70;101047.16;5098098;28;20648;-78
2022/08/06 09:45:23;;;;;;;1.87;1.27;;;;;;;23.65;62.51;101052.53;5108026;27;20190;-78
2022/08/06 09:48:08;;;;;;;3.33;1.40;;;;;;;23.69;61.74;101063.78;5104833;27;20256;-75
2022/08/06 09:50:39;;;;;;;1.03;0.90;;;;;;;23.42;61.04;101054.56;5089853;28;20211;-76
2022/08/06 09:53:05;;;;;;;5.60;1.50;;;;;;;23.49;61.14;101059.53;5093803;28;20246;-75
2022/08/06 09:55:32;;;;;;;2.03;1.27;;;;;;;23.43;61.58;101058.91;5092583;28;20659;-76
2022/08/06 09:57:58;;;;;;;6.87;2.00;;;;;;;23.56;62.05;101053.00;5099574;27;20210;-75
2022/08/06 10:00:29;;;;;;;4.00;1.70;;;;;;;23.49;61.70;101080.66;5103652;28;20552;-75
2022/08/06 10:02:59;;;;;;;2.00;1.33;;;;;;;23.52;61.55;101059.38;5092265;28;20968;-75
2022/08/06 10:05:25;;;;;;;2.70;1.50;;;;;;;23.54;61.23;101057.50;5095617;28;20610;-75
2022/08/06 10:08:17;;;;;;;3.83;1.73;;;;;;;23.58;61.08;101069.63;5103943;28;20190;-75
2022/08/06 10:10:49;;;;;;;2.53;1.20;;;;;;;23.64;60.58;101053.47;5100016;28;21051;-77
2022/08/06 10:13:18;;;;;;;2.17;1.50;;;;;;;23.87;60.46;101054.03;5099033;28;20569;-76
2022/08/06 10:15:48;;;;;;;1.47;1.10;;;;;;;23.94;60.51;101051.91;5097212;28;20189;-77
2022/08/06 10:18:35;;;;;;;2.77;1.40;;;;;;;23.97;59.99;101057.94;5115283;27;20173;-77
2022/08/06 10:21:08;;;;;;;2.57;1.60;;;;;;;23.82;59.53;101056.09;5123895;27;20287;-77
2022/08/06 10:23:39;;;;;;;3.47;1.60;;;;;;;23.75;59.24;101066.97;5103606;28;20210;-76
2022/08/06 10:26:13;;;;;;;2.30;1.30;;;;;;;23.70;59.23;101063.69;5103179;28;20176;-76
2022/08/06 10:28:41;;;;;;;4.10;1.60;;;;;;;23.68;59.73;101060.28;5106558;27;20203;-77
2022/08/06 10:31:09;;;;;;;3.97;1.50;;;;;;;23.70;59.43;101052.28;5104294;28;20262;-78
2022/08/06 10:34:06;;;;;;;2.33;1.20;;;;;;;23.84;58.84;101048.91;5098621;28;20181;-77
2022/08/06 10:36:35;;;;;;;3.33;1.40;;;;;;;24.01;59.03;101048.06;5101743;27;20184;-75
2022/08/06 10:39:03;;;;;;;2.30;1.10;;;;;;;24.14;58.91;101051.75;5105920;27;20323;-75
2022/08/06 10:41:29;;;;;;;2.90;1.30;;;;;;;24.34;58.36;101037.44;5107386;27;20233;-75
2022/08/06 10:43:55;;;;;;;4.17;1.17;;;;;;;24.46;58.14;101037.69;5103889;27;20172;-75
2022/08/06 10:46:21;;;;;;;2.27;1.20;;;;;;;24.09;58.72;101050.28;5115715;27;20179;-76
2022/08/06 10:48:47;;;;;;;2.17;1.30;;;;;;;23.99;57.81;101052.56;5106339;27;20180;-76
2022/08/06 10:51:14;;;;;;;3.80;1.13;;;;;;;23.98;58.65;101038.47;5114112;27;20689;-77
2022/08/06 10:53:41;;;;;;;1.40;1.03;;;;;;;23.97;57.85;101031.50;5110289;27;20690;-76
2022/08/06 10:56:10;;;;;;;2.87;1.20;;;;;;;24.09;58.34;101034.44;5123809;27;20187;-76
2022/08/06 10:58:38;;;;;;;1.73;1.37;;;;;;;24.05;58.25;101039.88;5119728;27;20224;-77
2022/08/06 11:01:26;;;;;;;1.80;1.00;;;;;;;24.39;58.47;101018.66;5112615;27;20227;-77
2022/08/06 11:03:58;;;;;;;1.90;1.00;;;;;;;24.66;58.63;101029.50;5106330;27;20180;-75
2022/08/06 11:06:23;;;;;;;2.30;1.10;;;;;;;24.66;57.35;101042.72;5108820;27;20212;-75
2022/08/06 11:09:24;;;;;;;2.53;1.37;;;;;;;24.58;57.54;101034.34;5097123;28;20269;-76
2022/08/06 11:11:56;;;;;;;2.67;1.20;;;;;;;24.65;57.71;101030.44;5100702;27;20209;-75
2022/08/06 11:14:22;;;;;;;1.20;1.10;;;;;;;24.78;57.58;101020.03;5102700;28;20615;-76
2022/08/06 11:16:59;;;;;;;3.63;1.47;;;;;;;24.84;57.30;101016.19;5106713;28;20336;-76
2022/08/06 11:19:57;;;;;;;2.03;1.20;;;;;;;24.84;57.18;101012.66;5093883;27;20204;-76
2022/08/06 11:22:37;;;;;;;4.73;1.50;;;;;;;24.77;56.73;101010.38;5069068;27;20226;-75
2022/08/06 11:25:05;;;;;;;1.20;1.03;;;;;;;24.71;57.15;101008.09;5096568;27;20214;-76
2022/08/06 11:27:50;;;;;;;1.60;1.20;;;;;;;24.74;56.67;101007.91;5109105;27;20204;-76
2022/08/06 11:30:17;;;;;;;1.80;1.20;;;;;;;24.92;56.57;101002.50;5106863;27;20180;-78
2022/08/06 11:32:43;;;;;;;1.83;1.10;;;;;;;25.15;56.78;101003.81;5099930;27;20235;-78
2022/08/06 11:35:34;;;;;;;1.30;1.07;;;;;;;25.44;56.94;100993.28;5109735;27;20304;-78
2022/08/06 11:38:04;;;;;;;1.77;1.20;;;;;;;25.36;55.76;101003.44;5105546;27;20657;-75
2022/08/06 11:41:00;;;;;;;1.47;1.30;;;;;;;25.24;55.47;100992.66;5108039;27;20268;-76
2022/08/06 11:43:42;;;;;;;2.03;1.20;;;;;;;25.36;55.71;100988.41;5102356;27;20176;-76